Terminal Aerodrome Forecast
Issued by NWS

Home | Current Version | Previous Version | Text Only | Print | Product List | Glossary On
Versions: 1 2 3 4 5 6 7 8 9 10 11 12 13
000
FTUS46 KSTO 050520
TAFSMF
TAF
KSMF 050520Z 0506/0606 17011KT P6SM SCT250
     FM051000 15007KT P6SM FEW250
     FM051600 VRB05KT P6SM SKC
     FM060300 18006KT P6SM SKC=

USA.gov is the U.S. government's official web portal to all federal, state and local government web resources and services.